Wetterdaten: Woche 18.01.16 - 24.01.16 (KW3)
Datum Zeit Temp. A. Feuchte A. Luftdruck Regen Wind Richtung Taupunkt Windchill Windben
18.01.2016 00:00 -11,7 C 92 % 1026,3 hPa 0,0 l/m 0,0 km/h (0 Bft) O-NO -12,8 C -11,7 C 0,1 km/h (0 Bft)
18.01.2016 01:00 -12,0 C 93 % 1025,8 hPa 0,0 l/m 0,1 km/h (0 Bft) O-NO -13,0 C -12,0 C 1,1 km/h (0 Bft)
18.01.2016 02:00 -11,1 C 94 % 1025,6 hPa 0,0 l/m 0,0 km/h (0 Bft) O-NO -12,0 C -11,1 C 0,5 km/h (0 Bft)
18.01.2016 03:00 -10,5 C 94 % 1025,2 hPa 0,0 l/m 0,0 km/h (0 Bft) O-NO -11,3 C -10,5 C 0,1 km/h (0 Bft)
18.01.2016 04:00 -9,9 C 94 % 1024,5 hPa 0,0 l/m 0,0 km/h (0 Bft) O-NO -10,8 C -9,9 C 0,4 km/h (0 Bft)
18.01.2016 05:00 -9,5 C 94 % 1023,8 hPa 0,0 l/m 0,4 km/h (0 Bft) O-NO -10,3 C -9,5 C 1,5 km/h (1 Bft)
18.01.2016 06:00 -8,7 C 95 % 1023,6 hPa 0,0 l/m 0,5 km/h (0 Bft) W-NW -9,4 C -8,7 C 2,3 km/h (1 Bft)
18.01.2016 07:00 -8,8 C 94 % 1023,3 hPa 0,0 l/m 0,3 km/h (0 Bft) SW -9,6 C -8,8 C 1,5 km/h (1 Bft)
18.01.2016 08:00 -9,5 C 93 % 1022,9 hPa 0,0 l/m 0,3 km/h (0 Bft) W-NW -10,4 C -9,5 C 1,6 km/h (1 Bft)
18.01.2016 09:00 -9,7 C 94 % 1022,7 hPa 0,0 l/m 0,6 km/h (0 Bft) W-NW -10,5 C -9,7 C 1,9 km/h (1 Bft)
18.01.2016 10:00 -8,6 C 93 % 1022,3 hPa 0,0 l/m 0,4 km/h (0 Bft) W-NW -9,5 C -8,6 C 1,9 km/h (1 Bft)
18.01.2016 11:00 -6,7 C 92 % 1021,4 hPa 0,0 l/m 1,4 km/h (1 Bft) W -7,8 C -6,7 C 3,4 km/h (1 Bft)
18.01.2016 12:00 -5,7 C 91 % 1020,5 hPa 0,0 l/m 1,8 km/h (1 Bft) SW -7,0 C -5,7 C 4,0 km/h (1 Bft)
18.01.2016 13:00 -4,8 C 90 % 1019,4 hPa 0,3 l/m 1,5 km/h (1 Bft) W -6,2 C -4,8 C 4,0 km/h (1 Bft)
18.01.2016 14:00 -5,3 C 90 % 1018,9 hPa 0,5 l/m 1,7 km/h (1 Bft) W-NW -6,6 C -5,3 C 4,5 km/h (1 Bft)
18.01.2016 15:00 -5,9 C 91 % 1018,9 hPa 0,0 l/m 1,0 km/h (0 Bft) W-NW -7,2 C -5,9 C 2,8 km/h (1 Bft)
18.01.2016 16:00 -7,2 C 91 % 1018,9 hPa 0,0 l/m 0,2 km/h (0 Bft) W -8,4 C -7,2 C 1,3 km/h (1 Bft)
18.01.2016 17:00 -9,4 C 91 % 1018,8 hPa 0,0 l/m 0,1 km/h (0 Bft) W -10,6 C -9,4 C 0,4 km/h (0 Bft)
18.01.2016 18:00 -10,9 C 91 % 1018,8 hPa 0,0 l/m 0,0 km/h (0 Bft) W -12,0 C -10,9 C 0,6 km/h (0 Bft)
18.01.2016 19:00 -12,7 C 91 % 1018,5 hPa 0,0 l/m 0,1 km/h (0 Bft) W -13,8 C -12,7 C 1,2 km/h (1 Bft)
18.01.2016 20:00 -13,6 C 91 % 1018,4 hPa 0,0 l/m 0,0 km/h (0 Bft) NW -14,7 C -13,6 C 0,5 km/h (0 Bft)
18.01.2016 21:00 -14,0 C 91 % 1018,2 hPa 0,0 l/m 0,0 km/h (0 Bft) NW -15,1 C -14,0 C 0,6 km/h (0 Bft)
18.01.2016 22:00 -14,1 C 91 % 1018,0 hPa 0,0 l/m 0,1 km/h (0 Bft) NW -15,2 C -14,1 C 1,2 km/h (1 Bft)
18.01.2016 23:00 -13,4 C 92 % 1018,1 hPa 0,0 l/m 0,1 km/h (0 Bft) N-NW -14,3 C -13,4 C 1,1 km/h (1 Bft)
19.01.2016 00:00 -12,5 C 92 % 1017,9 hPa 0,0 l/m 0,3 km/h (0 Bft) N -13,5 C -12,5 C 1,7 km/h (1 Bft)
19.01.2016 01:00 -13,0 C 91 % 1017,4 hPa 0,0 l/m 0,0 km/h (0 Bft) N -14,2 C -13,0 C 0,5 km/h (0 Bft)
19.01.2016 02:00 -13,4 C 92 % 1017,2 hPa 0,0 l/m 0,1 km/h (0 Bft) N -14,5 C -13,4 C 0,6 km/h (0 Bft)
19.01.2016 03:00 -13,2 C 92 % 1017,1 hPa 0,0 l/m 0,0 km/h (0 Bft) N -14,2 C -13,2 C 0,4 km/h (0 Bft)
19.01.2016 04:00 -11,8 C 93 % 1016,9 hPa 0,0 l/m 0,1 km/h (0 Bft) N -12,7 C -11,8 C 1,1 km/h (0 Bft)
19.01.2016 05:00 -10,6 C 93 % 1016,8 hPa 0,0 l/m 0,2 km/h (0 Bft) N -11,5 C -10,6 C 1,1 km/h (1 Bft)
19.01.2016 06:00 -10,0 C 93 % 1016,7 hPa 0,0 l/m 0,2 km/h (0 Bft) N -10,9 C -10,0 C 0,8 km/h (0 Bft)
19.01.2016 07:00 -9,3 C 94 % 1017,1 hPa 0,0 l/m 0,2 km/h (0 Bft) N -10,2 C -9,3 C 1,5 km/h (1 Bft)
19.01.2016 08:00 -8,6 C 94 % 1017,5 hPa 0,0 l/m 0,1 km/h (0 Bft) N -9,4 C -8,6 C 0,7 km/h (0 Bft)
19.01.2016 09:00 -7,9 C 94 % 1017,5 hPa 0,0 l/m 0,0 km/h (0 Bft) N -8,6 C -7,9 C 0,6 km/h (0 Bft)
19.01.2016 10:00 -6,0 C 95 % 1017,8 hPa 0,0 l/m 0,2 km/h (0 Bft) N -6,7 C -6,0 C 0,9 km/h (0 Bft)
19.01.2016 11:00 -4,8 C 94 % 1018,2 hPa 0,0 l/m 0,1 km/h (0 Bft) N-NW -5,6 C -4,8 C 0,9 km/h (0 Bft)
19.01.2016 12:00 -4,1 C 94 % 1018,0 hPa 0,0 l/m 0,3 km/h (0 Bft) N-NW -4,9 C -4,1 C 1,5 km/h (1 Bft)
19.01.2016 13:00 -2,8 C 94 % 1017,6 hPa 0,0 l/m 0,2 km/h (0 Bft) N-NW -3,6 C -2,8 C 1,2 km/h (1 Bft)
19.01.2016 14:00 -1,8 C 95 % 1017,3 hPa 0,0 l/m 0,2 km/h (0 Bft) NO -2,6 C -1,8 C 1,2 km/h (1 Bft)
19.01.2016 15:00 -1,7 C 95 % 1017,3 hPa 0,0 l/m 0,4 km/h (0 Bft) NO -2,4 C -1,7 C 1,4 km/h (1 Bft)
19.01.2016 16:00 -1,8 C 95 % 1017,4 hPa 0,0 l/m 0,1 km/h (0 Bft) NO -2,5 C -1,8 C 0,8 km/h (0 Bft)
19.01.2016 17:00 -2,2 C 96 % 1017,6 hPa 0,0 l/m 0,0 km/h (0 Bft) NO -2,8 C -2,2 C 0,3 km/h (0 Bft)
19.01.2016 18:00 -2,3 C 96 % 1017,8 hPa 0,0 l/m 0,0 km/h (0 Bft) NO -2,9 C -2,3 C 0,0 km/h (0 Bft)
19.01.2016 19:00 -2,4 C 97 % 1017,8 hPa 0,0 l/m 0,0 km/h (0 Bft) NO -2,8 C -2,4 C 0,3 km/h (0 Bft)
19.01.2016 20:00 -2,4 C 97 % 1018,0 hPa 0,0 l/m 0,0 km/h (0 Bft) NO -2,8 C -2,4 C 0,0 km/h (0 Bft)
19.01.2016 21:00 -2,3 C 97 % 1018,1 hPa 0,0 l/m 0,0 km/h (0 Bft) NO -2,7 C -2,3 C 0,0 km/h (0 Bft)
19.01.2016 22:00 -2,3 C 97 % 1018,0 hPa 0,0 l/m 0,0 km/h (0 Bft) NO -2,7 C -2,3 C 0,0 km/h (0 Bft)
19.01.2016 23:00 -2,3 C 97 % 1018,0 hPa 0,0 l/m 0,1 km/h (0 Bft) NO -2,7 C -2,3 C 0,4 km/h (0 Bft)
20.01.2016 00:00 -2,3 C 97 % 1018,0 hPa 0,0 l/m 0,1 km/h (0 Bft) NO -2,7 C -2,3 C 1,0 km/h (0 Bft)
20.01.2016 01:00 -2,4 C 97 % 1017,8 hPa 0,0 l/m 0,1 km/h (0 Bft) O -2,8 C -2,4 C 0,5 km/h (0 Bft)
20.01.2016 02:00 -2,7 C 97 % 1018,1 hPa 0,0 l/m 0,6 km/h (0 Bft) S-SO -3,1 C -2,7 C 1,4 km/h (1 Bft)
20.01.2016 03:00 -2,9 C 97 % 1018,4 hPa 0,0 l/m 1,0 km/h (0 Bft) S-SO -3,4 C -2,9 C 2,3 km/h (1 Bft)
20.01.2016 04:00 -3,4 C 97 % 1018,4 hPa 0,0 l/m 0,3 km/h (0 Bft) SW -3,8 C -3,4 C 1,6 km/h (1 Bft)
20.01.2016 05:00 -3,9 C 97 % 1018,6 hPa 0,0 l/m 0,3 km/h (0 Bft) SW -4,3 C -3,9 C 1,5 km/h (1 Bft)
20.01.2016 06:00 -4,4 C 96 % 1018,6 hPa 0,0 l/m 0,4 km/h (0 Bft) S-SW -4,9 C -4,4 C 1,5 km/h (1 Bft)
20.01.2016 07:00 -5,2 C 96 % 1019,0 hPa 0,0 l/m 0,6 km/h (0 Bft) W-NW -5,7 C -5,2 C 2,4 km/h (1 Bft)
20.01.2016 08:00 -5,7 C 96 % 1019,8 hPa 0,0 l/m 0,6 km/h (0 Bft) N-NO -6,2 C -5,7 C 2,2 km/h (1 Bft)
20.01.2016 09:00 -6,0 C 95 % 1020,2 hPa 0,0 l/m 1,2 km/h (1 Bft) N-NO -6,6 C -6,0 C 3,1 km/h (1 Bft)
20.01.2016 10:00 -5,7 C 96 % 1020,8 hPa 0,0 l/m 0,8 km/h (0 Bft) O-NO -6,3 C -5,7 C 2,8 km/h (1 Bft)
20.01.2016 11:00 -4,9 C 95 % 1021,1 hPa 0,0 l/m 0,9 km/h (0 Bft) N-NO -5,5 C -4,9 C 3,0 km/h (1 Bft)
20.01.2016 12:00 -4,1 C 94 % 1021,0 hPa 0,0 l/m 1,2 km/h (1 Bft) NO -4,9 C -4,1 C 2,9 km/h (1 Bft)
20.01.2016 13:00 -1,9 C 92 % 1020,5 hPa 1,0 l/m 1,0 km/h (0 Bft) O-NO -3,1 C -1,9 C 2,9 km/h (1 Bft)
20.01.2016 14:00 -0,3 C 88 % 1020,1 hPa 2,0 l/m 0,8 km/h (0 Bft) O-NO -2,1 C -0,3 C 2,3 km/h (1 Bft)
20.01.2016 15:00 -0,3 C 87 % 1020,1 hPa 2,5 l/m 0,2 km/h (0 Bft) O-NO -2,2 C -0,3 C 1,5 km/h (1 Bft)
20.01.2016 16:00 -1,9 C 88 % 1020,3 hPa 1,8 l/m 0,2 km/h (0 Bft) NO -3,7 C -1,9 C 0,9 km/h (0 Bft)
20.01.2016 17:00 -5,1 C 89 % 1021,0 hPa 0,3 l/m 0,0 km/h (0 Bft) NO -6,7 C -5,1 C 0,2 km/h (0 Bft)
20.01.2016 18:00 -6,6 C 89 % 1021,5 hPa 0,0 l/m 0,0 km/h (0 Bft) NO -8,2 C -6,6 C 0,3 km/h (0 Bft)
20.01.2016 19:00 -9,0 C 91 % 1021,8 hPa 0,0 l/m 0,0 km/h (0 Bft) NO -10,1 C -9,0 C 0,0 km/h (0 Bft)
20.01.2016 20:00 -10,6 C 92 % 1022,6 hPa 0,0 l/m 0,0 km/h (0 Bft) NO -11,7 C -10,6 C 0,2 km/h (0 Bft)
20.01.2016 21:00 -11,3 C 92 % 1022,9 hPa 0,0 l/m 0,0 km/h (0 Bft) NO -12,4 C -11,3 C 0,0 km/h (0 Bft)
20.01.2016 22:00 -12,3 C 91 % 1023,4 hPa 0,0 l/m 0,0 km/h (0 Bft) NO -13,4 C -12,3 C 0,4 km/h (0 Bft)
20.01.2016 23:00 -12,6 C 92 % 1024,0 hPa 0,0 l/m 0,1 km/h (0 Bft) NO -13,7 C -12,6 C 0,5 km/h (0 Bft)
21.01.2016 00:00 -12,0 C 93 % 1024,2 hPa 0,0 l/m 0,0 km/h (0 Bft) NO -12,9 C -12,0 C 0,4 km/h (0 Bft)
21.01.2016 01:00 -11,2 C 93 % 1024,6 hPa 0,0 l/m 0,3 km/h (0 Bft) NO -12,2 C -11,2 C 1,5 km/h (1 Bft)
21.01.2016 02:00 -10,8 C 92 % 1024,9 hPa 0,0 l/m 0,2 km/h (0 Bft) W-NW -11,8 C -10,8 C 1,6 km/h (1 Bft)
21.01.2016 03:00 -10,4 C 93 % 1025,2 hPa 0,0 l/m 0,7 km/h (0 Bft) W-NW -11,3 C -10,4 C 2,2 km/h (1 Bft)
21.01.2016 04:00 -9,5 C 93 % 1025,4 hPa 0,0 l/m 0,5 km/h (0 Bft) N-NW -10,4 C -9,5 C 2,4 km/h (1 Bft)
21.01.2016 05:00 -9,3 C 93 % 1025,9 hPa 0,0 l/m 0,3 km/h (0 Bft) N-NW -10,3 C -9,3 C 1,7 km/h (1 Bft)
21.01.2016 06:00 -9,3 C 93 % 1026,2 hPa 0,0 l/m 0,3 km/h (0 Bft) N-NW -10,2 C -9,3 C 1,8 km/h (1 Bft)
21.01.2016 07:00 -8,9 C 94 % 1026,7 hPa 0,0 l/m 0,3 km/h (0 Bft) NW -9,7 C -8,9 C 1,5 km/h (1 Bft)
21.01.2016 08:00 -8,4 C 94 % 1027,5 hPa 0,0 l/m 0,2 km/h (0 Bft) NW -9,2 C -8,4 C 1,0 km/h (0 Bft)
21.01.2016 09:00 -7,8 C 94 % 1027,9 hPa 0,0 l/m 0,0 km/h (0 Bft) NW -8,6 C -7,8 C 0,6 km/h (0 Bft)
21.01.2016 10:00 -5,2 C 93 % 1028,3 hPa 0,0 l/m 0,2 km/h (0 Bft) NW -6,1 C -5,2 C 1,6 km/h (1 Bft)
21.01.2016 11:00 -3,1 C 91 % 1028,5 hPa 0,0 l/m 0,4 km/h (0 Bft) NW -4,3 C -3,1 C 1,8 km/h (1 Bft)
21.01.2016 12:00 -0,9 C 90 % 1028,5 hPa 1,5 l/m 1,0 km/h (0 Bft) NW -2,4 C -0,9 C 2,4 km/h (1 Bft)
21.01.2016 13:00 0,0 C 88 % 1028,1 hPa 2,0 l/m 2,5 km/h (1 Bft) W-NW -1,8 C 0,0 C 7,8 km/h (2 Bft)
21.01.2016 14:00 0,0 C 88 % 1028,0 hPa 1,8 l/m 2,6 km/h (1 Bft) W -1,7 C 0,0 C 6,7 km/h (2 Bft)
21.01.2016 15:00 -0,5 C 90 % 1028,2 hPa 0,3 l/m 2,2 km/h (1 Bft) W -2,0 C -0,5 C 5,0 km/h (1 Bft)
21.01.2016 16:00 -0,8 C 89 % 1028,4 hPa 0,5 l/m 0,4 km/h (0 Bft) W-SW -2,3 C -0,8 C 2,1 km/h (1 Bft)
21.01.2016 17:00 -3,9 C 92 % 1028,9 hPa 0,0 l/m 0,0 km/h (0 Bft) W-SW -5,0 C -3,9 C 0,4 km/h (0 Bft)
21.01.2016 18:00 -5,4 C 93 % 1029,2 hPa 0,0 l/m 0,0 km/h (0 Bft) W-SW -6,3 C -5,4 C 0,3 km/h (0 Bft)
21.01.2016 19:00 -7,3 C 93 % 1029,8 hPa 0,0 l/m 0,0 km/h (0 Bft) W-SW -8,2 C -7,3 C 0,0 km/h (0 Bft)
21.01.2016 20:00 -8,4 C 94 % 1030,3 hPa 0,0 l/m 0,0 km/h (0 Bft) W-SW -9,3 C -8,4 C 0,3 km/h (0 Bft)
21.01.2016 21:00 -9,2 C 93 % 1030,7 hPa 0,0 l/m 0,0 km/h (0 Bft) W-SW -10,1 C -9,2 C 0,3 km/h (0 Bft)
21.01.2016 22:00 -10,9 C 91 % 1030,7 hPa 0,0 l/m 0,1 km/h (0 Bft) W-SW -12,1 C -10,9 C 0,9 km/h (0 Bft)
21.01.2016 23:00 -12,1 C 91 % 1030,8 hPa 0,0 l/m 0,1 km/h (0 Bft) W-SW -13,2 C -12,1 C 1,2 km/h (1 Bft)
22.01.2016 00:00 -12,4 C 91 % 1031,0 hPa 0,0 l/m 0,0 km/h (0 Bft) W-SW -13,5 C -12,4 C 0,6 km/h (0 Bft)
22.01.2016 01:00 -13,7 C 90 % 1031,0 hPa 0,0 l/m 0,1 km/h (0 Bft) W-SW -14,9 C -13,7 C 0,8 km/h (0 Bft)
22.01.2016 02:00 -13,5 C 92 % 1031,1 hPa 0,0 l/m 0,1 km/h (0 Bft) W-SW -14,6 C -13,5 C 1,3 km/h (1 Bft)
22.01.2016 03:00 -12,5 C 92 % 1031,0 hPa 0,0 l/m 0,3 km/h (0 Bft) W-SW -13,5 C -12,5 C 1,3 km/h (1 Bft)
22.01.2016 04:00 -11,0 C 94 % 1031,0 hPa 0,0 l/m 0,5 km/h (0 Bft) W-SW -11,9 C -11,0 C 2,3 km/h (1 Bft)
22.01.2016 05:00 -9,3 C 94 % 1030,9 hPa 0,0 l/m 0,9 km/h (0 Bft) NO -10,1 C -9,3 C 3,0 km/h (1 Bft)
22.01.2016 06:00 -7,3 C 96 % 1030,7 hPa 0,0 l/m 1,0 km/h (0 Bft) NO -7,8 C -7,3 C 3,8 km/h (1 Bft)
22.01.2016 07:00 -5,1 C 95 % 1030,9 hPa 0,0 l/m 1,8 km/h (1 Bft) O-NO -5,8 C -5,1 C 6,0 km/h (2 Bft)
22.01.2016 08:00 -4,8 C 94 % 1031,2 hPa 0,0 l/m 0,6 km/h (0 Bft) O-SO -5,6 C -4,8 C 2,6 km/h (1 Bft)
22.01.2016 09:00 -4,6 C 94 % 1031,3 hPa 0,0 l/m 0,2 km/h (0 Bft) S -5,4 C -4,6 C 1,5 km/h (1 Bft)
22.01.2016 10:00 -3,2 C 92 % 1031,4 hPa 0,0 l/m 0,9 km/h (0 Bft) O-NO -4,2 C -3,2 C 3,3 km/h (1 Bft)
22.01.2016 11:00 -1,6 C 89 % 1031,0 hPa 0,3 l/m 3,2 km/h (1 Bft) O -3,2 C -1,6 C 7,2 km/h (2 Bft)
22.01.2016 12:00 -1,2 C 88 % 1030,7 hPa 0,3 l/m 4,3 km/h (1 Bft) O-NO -2,9 C -1,2 C 10,0 km/h (2 Bft)
22.01.2016 13:00 0,1 C 85 % 1030,1 hPa 1,0 l/m 3,3 km/h (1 Bft) NO -2,0 C 0,1 C 8,2 km/h (2 Bft)
22.01.2016 14:00 0,8 C 84 % 1030,0 hPa 1,0 l/m 2,4 km/h (1 Bft) O-NO -1,6 C 0,8 C 6,2 km/h (2 Bft)
22.01.2016 15:00 0,9 C 83 % 1030,1 hPa 1,0 l/m 1,8 km/h (1 Bft) O-NO -1,6 C 0,9 C 3,9 km/h (1 Bft)
22.01.2016 16:00 -1,0 C 87 % 1030,1 hPa 0,3 l/m 1,3 km/h (1 Bft) O -2,9 C -1,0 C 3,9 km/h (1 Bft)
22.01.2016 17:00 -3,1 C 91 % 1030,1 hPa 0,0 l/m 0,4 km/h (0 Bft) O-SO -4,4 C -3,1 C 1,5 km/h (1 Bft)
22.01.2016 18:00 -4,6 C 92 % 1030,3 hPa 0,0 l/m 0,1 km/h (0 Bft) O -5,6 C -4,6 C 1,6 km/h (1 Bft)
22.01.2016 19:00 -5,8 C 94 % 1030,6 hPa 0,0 l/m 0,1 km/h (0 Bft) O -6,6 C -5,8 C 1,3 km/h (1 Bft)
22.01.2016 20:00 -5,8 C 95 % 1030,3 hPa 0,0 l/m 0,1 km/h (0 Bft) O -6,5 C -5,8 C 1,5 km/h (1 Bft)
22.01.2016 21:00 -5,8 C 95 % 1030,2 hPa 0,0 l/m 0,1 km/h (0 Bft) O -6,4 C -5,8 C 0,8 km/h (0 Bft)
22.01.2016 22:00 -4,6 C 97 % 1030,6 hPa 0,0 l/m 0,3 km/h (0 Bft) O -5,0 C -4,6 C 2,3 km/h (1 Bft)
22.01.2016 23:00 -3,0 C 96 % 1030,3 hPa 0,0 l/m 0,8 km/h (0 Bft) O -3,6 C -3,0 C 2,6 km/h (1 Bft)
23.01.2016 00:00 -2,4 C 96 % 1030,2 hPa 0,0 l/m 0,9 km/h (0 Bft) O -2,9 C -2,4 C 2,6 km/h (1 Bft)
23.01.2016 01:00 -0,4 C 95 % 1029,8 hPa 0,0 l/m 1,3 km/h (1 Bft) O-NO -1,1 C -0,4 C 3,9 km/h (1 Bft)
23.01.2016 02:00 0,9 C 97 % 1029,6 hPa 0,0 l/m 4,1 km/h (1 Bft) O-NO 0,5 C 0,9 C 9,6 km/h (2 Bft)
23.01.2016 03:00 1,6 C 97 % 1029,6 hPa 1,5 l/m 6,1 km/h (2 Bft) O-NO 1,1 C 1,0 C 13,2 km/h (3 Bft)
23.01.2016 04:00 2,2 C 97 % 1030,2 hPa 1,8 l/m 5,8 km/h (2 Bft) O 1,7 C 2,0 C 14,1 km/h (3 Bft)
23.01.2016 05:00 2,2 C 97 % 1031,1 hPa 2,0 l/m 5,7 km/h (2 Bft) O 1,8 C 2,0 C 13,4 km/h (3 Bft)
23.01.2016 06:00 2,3 C 97 % 1032,2 hPa 1,0 l/m 4,8 km/h (1 Bft) O 1,9 C 2,0 C 11,0 km/h (2 Bft)
23.01.2016 07:00 2,2 C 97 % 1033,2 hPa 0,5 l/m 0,9 km/h (0 Bft) SO 1,7 C 2,2 C 3,7 km/h (1 Bft)
23.01.2016 08:00 2,1 C 97 % 1034,4 hPa 0,5 l/m 1,0 km/h (0 Bft) O 1,6 C 2,1 C 3,4 km/h (1 Bft)
23.01.2016 09:00 2,3 C 97 % 1035,0 hPa 0,3 l/m 1,0 km/h (0 Bft) O 1,9 C 2,3 C 2,6 km/h (1 Bft)
23.01.2016 10:00 3,4 C 95 % 1035,9 hPa 0,8 l/m 1,5 km/h (1 Bft) O-NO 2,7 C 3,4 C 4,4 km/h (1 Bft)
23.01.2016 11:00 3,8 C 94 % 1036,7 hPa 0,8 l/m 1,5 km/h (1 Bft) O 2,9 C 3,8 C 4,3 km/h (1 Bft)
23.01.2016 12:00 4,0 C 93 % 1036,7 hPa 0,5 l/m 1,1 km/h (0 Bft) S-SO 3,1 C 4,0 C 2,9 km/h (1 Bft)
23.01.2016 13:00 4,7 C 92 % 1036,5 hPa 0,3 l/m 1,5 km/h (1 Bft) O 3,4 C 4,7 C 4,1 km/h (1 Bft)
23.01.2016 14:00 4,4 C 92 % 1036,6 hPa 0,0 l/m 2,6 km/h (1 Bft) O 3,2 C 4,4 C 5,9 km/h (2 Bft)
23.01.2016 15:00 4,5 C 91 % 1036,8 hPa 0,0 l/m 1,5 km/h (1 Bft) O 3,3 C 4,5 C 4,6 km/h (1 Bft)
23.01.2016 16:00 3,5 C 92 % 1036,9 hPa 0,0 l/m 0,9 km/h (0 Bft) O 2,3 C 3,5 C 3,5 km/h (1 Bft)
23.01.2016 17:00 1,0 C 95 % 1038,0 hPa 0,0 l/m 0,1 km/h (0 Bft) O 0,3 C 1,0 C 0,8 km/h (0 Bft)
23.01.2016 18:00 -0,2 C 96 % 1038,4 hPa 0,0 l/m 0,3 km/h (0 Bft) O -0,8 C -0,2 C 1,1 km/h (1 Bft)
23.01.2016 19:00 -0,7 C 97 % 1038,5 hPa 0,0 l/m 0,1 km/h (0 Bft) O -1,1 C -0,7 C 1,3 km/h (1 Bft)
23.01.2016 20:00 -0,9 C 97 % 1038,4 hPa 0,0 l/m 0,0 km/h (0 Bft) O -1,3 C -0,9 C 0,3 km/h (0 Bft)
23.01.2016 21:00 -1,2 C 97 % 1038,2 hPa 0,0 l/m 0,1 km/h (0 Bft) O -1,6 C -1,2 C 0,8 km/h (0 Bft)
23.01.2016 22:00 -1,5 C 97 % 1038,1 hPa 0,0 l/m 0,1 km/h (0 Bft) SO -1,9 C -1,5 C 0,8 km/h (0 Bft)
23.01.2016 23:00 -2,3 C 96 % 1037,7 hPa 0,0 l/m 0,1 km/h (0 Bft) SO -2,8 C -2,3 C 0,8 km/h (0 Bft)
24.01.2016 00:00 -2,4 C 96 % 1037,7 hPa 0,0 l/m 0,3 km/h (0 Bft) N -2,9 C -2,4 C 1,3 km/h (1 Bft)
24.01.2016 01:00 -1,6 C 98 % 1037,1 hPa 0,0 l/m 0,9 km/h (0 Bft) O -1,8 C -1,6 C 3,1 km/h (1 Bft)
24.01.2016 02:00 -1,4 C 98 % 1036,6 hPa 0,0 l/m 1,1 km/h (1 Bft) O-SO -1,7 C -1,4 C 3,5 km/h (1 Bft)
24.01.2016 03:00 -1,7 C 98 % 1036,3 hPa 0,0 l/m 0,5 km/h (0 Bft) O-SO -2,0 C -1,7 C 1,9 km/h (1 Bft)
24.01.2016 04:00 -2,6 C 97 % 1035,7 hPa 0,0 l/m 0,6 km/h (0 Bft) O-SO -3,0 C -2,6 C 2,8 km/h (1 Bft)
24.01.2016 05:00 -3,6 C 97 % 1035,6 hPa 0,0 l/m 0,4 km/h (0 Bft) O-SO -4,0 C -3,6 C 1,4 km/h (1 Bft)
24.01.2016 06:00 -3,5 C 97 % 1035,5 hPa 0,0 l/m 0,0 km/h (0 Bft) O-SO -3,9 C -3,5 C 0,6 km/h (0 Bft)
24.01.2016 07:00 -3,5 C 97 % 1035,7 hPa 0,0 l/m 0,0 km/h (0 Bft) O-SO -3,9 C -3,5 C 0,3 km/h (0 Bft)
24.01.2016 08:00 -3,1 C 97 % 1035,9 hPa 0,0 l/m 0,0 km/h (0 Bft) O-SO -3,5 C -3,1 C 0,6 km/h (0 Bft)
24.01.2016 09:00 -2,3 C 97 % 1035,8 hPa 0,0 l/m 0,3 km/h (0 Bft) O-SO -2,7 C -2,3 C 1,2 km/h (1 Bft)
24.01.2016 10:00 -0,6 C 98 % 1035,8 hPa 0,3 l/m 0,4 km/h (0 Bft) S-SO -0,9 C -0,6 C 1,9 km/h (1 Bft)
24.01.2016 11:00 0,5 C 97 % 1035,9 hPa 0,0 l/m 0,4 km/h (0 Bft) S-SO 0,1 C 0,5 C 1,3 km/h (1 Bft)
24.01.2016 12:00 1,0 C 97 % 1035,9 hPa 0,0 l/m 0,2 km/h (0 Bft) S-SO 0,5 C 1,0 C 1,2 km/h (1 Bft)
24.01.2016 13:00 1,9 C 97 % 1035,5 hPa 0,0 l/m 0,4 km/h (0 Bft) S 1,5 C 1,9 C 2,0 km/h (1 Bft)
24.01.2016 14:00 3,4 C 93 % 1034,9 hPa 0,0 l/m 0,5 km/h (0 Bft) O 2,4 C 3,4 C 1,9 km/h (1 Bft)
24.01.2016 15:00 3,4 C 93 % 1034,9 hPa 0,0 l/m 0,1 km/h (0 Bft) O 2,3 C 3,4 C 1,1 km/h (1 Bft)
24.01.2016 16:00 3,1 C 92 % 1034,8 hPa 0,0 l/m 0,3 km/h (0 Bft) O 2,0 C 3,1 C 1,9 km/h (1 Bft)
24.01.2016 17:00 1,9 C 95 % 1035,0 hPa 0,0 l/m 0,2 km/h (0 Bft) SO 1,2 C 1,9 C 1,8 km/h (1 Bft)
24.01.2016 18:00 1,5 C 96 % 1035,1 hPa 0,0 l/m 0,2 km/h (0 Bft) SO 0,9 C 1,5 C 1,0 km/h (0 Bft)
24.01.2016 19:00 1,2 C 96 % 1035,2 hPa 0,0 l/m 0,4 km/h (0 Bft) SO 0,7 C 1,2 C 2,4 km/h (1 Bft)
24.01.2016 20:00 1,6 C 95 % 1035,1 hPa 0,0 l/m 0,5 km/h (0 Bft) N-NO 0,9 C 1,6 C 2,2 km/h (1 Bft)
24.01.2016 21:00 1,6 C 94 % 1034,9 hPa 0,0 l/m 0,2 km/h (0 Bft) N-NO 0,8 C 1,6 C 1,2 km/h (1 Bft)
24.01.2016 22:00 1,2 C 94 % 1034,6 hPa 0,0 l/m 0,1 km/h (0 Bft) NO 0,4 C 1,2 C 0,8 km/h (0 Bft)
24.01.2016 23:00 0,5 C 96 % 1034,3 hPa 0,0 l/m 0,2 km/h (0 Bft) O 0,0 C 0,5 C 0,9 km/h (0 Bft)
Min-Datum _ 22.01.16 22.01.16 19.01.16 - 24.01.16 - 22.01.16 22.01.16 24.01.16
_ Min-Zeit 02:00 15:10 06:00 - 23:20 - 02:00 02:00 23:20
Minimum _ -14,2 C 82 % 1016,6 hPa - 0,0 km/h (0 Bft) - -15,5 C -14,2 C 0,0 km/h (0 Bft)
Max-Datum _ 23.01.16 24.01.16 23.01.16 20.01.16 23.01.16 - 23.01.16 23.01.16 23.01.16
_ Max-Zeit 15:50 12:06 20:00 15:05 03:02 - 12:45 15:50 03:02
Maximum _ 4,9 C 98 % 1038,7 hPa 2,5 l/m 12,9 km/h
O-NO (3 Bft)
- 3,6 C 4,9 C 19,3 km/h
O (3 Bft)
Durchschnitt _ -4,6 C 94 % 1026,9 hPa #28,4 l/m 0,7 km/h (0 Bft) N -5,5 C -4,6 C 2,2 km/h (1 Bft)